Temp: 20.7°C   Baro: 1012.2mb
  Wind: 4.0mph   Dir: WSW (238°)
  Rain: 0.0mm (0.0mm/hr)
  Solar: 559W/m2  Hum: 63%
 
Bath Spa Weather Station Historical Data
Daily Summary for July 22, 2021 Units:  Both    English   Metric
Daily Weekly Monthly Yearly Custom
  High: Low: Average:
Temperature: 87.2 °F /  30.7 °C 64.7 °F /  18.2 °C 75.7 °F /  24.3 °C
Dew Point: 68.6 °F /  20.3 °C 61.7 °F /  16.5 °C 65 °F /  18.3 °C
Humidity: 88% 48% 69%
Wind Speed: 6.4mph /  10.3km/h - 1.8mph /  2.9km/h
Wind Gust: 13mph /  20.9km/h - -
Wind- - SE
Pressure: 30.23 in /  1023.6 hPa 30.11 in /  1019.5 hPa -
Precipitation: 0.00 in /  0 mm    
Historical Graphs
 
 
Tabular Data for July 22, 2021
Time Temperature Dew Point Pressure Wind Wind Speed Wind Gust Humidity Rainfall Rate (Hourly) solar
00:04 72.7 °F /  22.6 °C 65.5 °F /  18.6 °C 30.20in /  1022.6hPa NNE 1.2mph /  1.9km/h 4mph /  6.4km/h 76% 0.00in /  0mm 0 W/m2
00:09 72.8 °F /  22.7 °C 65.6 °F /  18.7 °C 30.20in /  1022.6hPa NNE 1.7mph /  2.7km/h 4mph /  6.4km/h 76% 0.00in /  0mm 0 W/m2
00:14 72.7 °F /  22.6 °C 65.5 °F /  18.6 °C 30.21in /  1022.9hPa NNE 1.7mph /  2.7km/h 5mph /  8km/h 76% 0.00in /  0mm 0 W/m2
00:19 72.7 °F /  22.6 °C 65.5 °F /  18.6 °C 30.21in /  1022.9hPa NNE 2.2mph /  3.5km/h 5mph /  8km/h 76% 0.00in /  0mm 0 W/m2
00:24 72.8 °F /  22.7 °C 65.6 °F /  18.7 °C 30.21in /  1022.9hPa ENE 2.5mph /  4km/h 8mph /  12.9km/h 76% 0.00in /  0mm 0 W/m2
00:29 72.8 °F /  22.7 °C 65.6 °F /  18.7 °C 30.21in /  1022.9hPa ENE 2.8mph /  4.5km/h 7mph /  11.3km/h 76% 0.00in /  0mm 0 W/m2
00:34 72.9 °F /  22.7 °C 65.7 °F /  18.7 °C 30.21in /  1022.9hPa ENE 2.4mph /  3.9km/h 7mph /  11.3km/h 76% 0.00in /  0mm 0 W/m2
00:39 72.7 °F /  22.6 °C 65.5 °F /  18.6 °C 30.21in /  1022.9hPa ENE 2.9mph /  4.7km/h 7mph /  11.3km/h 76% 0.00in /  0mm 0 W/m2
00:44 72.6 °F /  22.6 °C 65.4 °F /  18.6 °C 30.21in /  1022.9hPa ENE 2.1mph /  3.4km/h 5mph /  8km/h 76% 0.00in /  0mm 0 W/m2
00:49 72.4 °F /  22.4 °C 65.2 °F /  18.4 °C 30.21in /  1022.9hPa ENE 2.7mph /  4.3km/h 9mph /  14.5km/h 76% 0.00in /  0mm 0 W/m2
00:54 72.2 °F /  22.3 °C 65 °F /  18.3 °C 30.21in /  1022.9hPa ENE 2mph /  3.2km/h 5mph /  8km/h 76% 0.00in /  0mm 0 W/m2
00:59 72.1 °F /  22.3 °C 65.3 °F /  18.5 °C 30.21in /  1022.9hPa ENE 0.6mph /  1km/h 4mph /  6.4km/h 76.6% 0.00in /  0mm 0 W/m2
01:04 72 °F /  22.2 °C 65.3 °F /  18.5 °C 30.21in /  1022.9hPa ENE 2.2mph /  3.5km/h 4mph /  6.4km/h 77% 0.00in /  0mm 0 W/m2
01:09 71.7 °F /  22.1 °C 65 °F /  18.3 °C 30.21in /  1022.9hPa ENE 1.6mph /  2.6km/h 7mph /  11.3km/h 77% 0.00in /  0mm 0 W/m2
01:14 71.3 °F /  21.8 °C 64.7 °F /  18.2 °C 30.21in /  1022.9hPa ENE 2.7mph /  4.3km/h 5mph /  8km/h 77% 0.00in /  0mm 0 W/m2
01:19 71.1 °F /  21.7 °C 64.5 °F /  18.1 °C 30.21in /  1022.9hPa ENE 2.5mph /  4km/h 5mph /  8km/h 77% 0.00in /  0mm 0 W/m2
01:24 71.1 °F /  21.7 °C 64.4 °F /  18 °C 30.21in /  1022.9hPa ENE 2mph /  3.2km/h 5mph /  8km/h 77% 0.00in /  0mm 0 W/m2
01:29 71 °F /  21.7 °C 64.3 °F /  17.9 °C 30.21in /  1022.9hPa ENE 3.6mph /  5.8km/h 7mph /  11.3km/h 77% 0.00in /  0mm 0 W/m2
01:34 71.1 °F /  21.7 °C 64.4 °F /  18 °C 30.21in /  1022.9hPa East 4.8mph /  7.7km/h 10mph /  16.1km/h 77% 0.00in /  0mm 0 W/m2
01:39 70.9 °F /  21.6 °C 64.2 °F /  17.9 °C 30.21in /  1022.9hPa East 4mph /  6.4km/h 8mph /  12.9km/h 77% 0.00in /  0mm 0 W/m2
01:44 70.9 °F /  21.6 °C 64.2 °F /  17.9 °C 30.21in /  1022.9hPa East 4.4mph /  7.1km/h 9mph /  14.5km/h 77% 0.00in /  0mm 0 W/m2
01:49 70.9 °F /  21.6 °C 64.2 °F /  17.9 °C 30.20in /  1022.6hPa East 2.2mph /  3.5km/h 8mph /  12.9km/h 77% 0.00in /  0mm 0 W/m2
01:54 70.9 °F /  21.6 °C 64.2 °F /  17.9 °C 30.21in /  1022.9hPa East 3.7mph /  6km/h 8mph /  12.9km/h 77% 0.00in /  0mm 0 W/m2
01:59 70.8 °F /  21.6 °C 64.4 °F /  18 °C 30.21in /  1022.9hPa East 4mph /  6.4km/h 10mph /  16.1km/h 77.6% 0.00in /  0mm 0 W/m2
02:04 70.5 °F /  21.4 °C 64.2 °F /  17.9 °C 30.20in /  1022.6hPa East 2.9mph /  4.7km/h 8mph /  12.9km/h 78% 0.00in /  0mm 0 W/m2
02:09 70.3 °F /  21.3 °C 64 °F /  17.8 °C 30.20in /  1022.6hPa East 2.9mph /  4.7km/h 10mph /  16.1km/h 78% 0.00in /  0mm 0 W/m2
02:14 70.2 °F /  21.2 °C 64 °F /  17.8 °C 30.20in /  1022.6hPa East 2.1mph /  3.4km/h 7mph /  11.3km/h 78.4% 0.00in /  0mm 0 W/m2
02:19 70.2 °F /  21.2 °C 64.2 °F /  17.9 °C 30.20in /  1022.6hPa East 4mph /  6.4km/h 8mph /  12.9km/h 79% 0.00in /  0mm 0 W/m2
02:24 70 °F /  21.1 °C 64 °F /  17.8 °C 30.20in /  1022.6hPa ESE 1.7mph /  2.7km/h 7mph /  11.3km/h 79% 0.00in /  0mm 0 W/m2
02:29 70 °F /  21.1 °C 64 °F /  17.8 °C 30.20in /  1022.6hPa ESE 1mph /  1.6km/h 7mph /  11.3km/h 79% 0.00in /  0mm 0 W/m2
02:34 70 °F /  21.1 °C 64.1 °F /  17.8 °C 30.20in /  1022.6hPa Calm   4mph /  6.4km/h 79.4% 0.00in /  0mm 0 W/m2
02:39 69.8 °F /  21 °C 64.2 °F /  17.9 °C 30.20in /  1022.6hPa ESE 1mph /  1.6km/h 5mph /  8km/h 80% 0.00in /  0mm 0 W/m2
02:44 69.6 °F /  20.9 °C 64 °F /  17.8 °C 30.20in /  1022.6hPa ESE 1.6mph /  2.6km/h 5mph /  8km/h 80% 0.00in /  0mm 0 W/m2
02:49 69.5 °F /  20.8 °C 64 °F /  17.8 °C 30.20in /  1022.6hPa ESE 0.2mph /  0.3km/h 5mph /  8km/h 80% 0.00in /  0mm 0 W/m2
02:54 69.4 °F /  20.8 °C 63.9 °F /  17.7 °C 30.21in /  1022.9hPa ESE 1.4mph /  2.3km/h 4mph /  6.4km/h 80% 0.00in /  0mm 0 W/m2
02:59 69.3 °F /  20.7 °C 63.7 °F /  17.6 °C 30.21in /  1022.9hPa Calm   4mph /  6.4km/h 80% 0.00in /  0mm 0 W/m2
03:04 68.9 °F /  20.5 °C 63.7 °F /  17.6 °C 30.21in /  1022.9hPa ESE 0.8mph /  1.3km/h 2mph /  3.2km/h 81% 0.00in /  0mm 0 W/m2
03:09 68.5 °F /  20.3 °C 63.3 °F /  17.4 °C 30.21in /  1022.9hPa Calm     81% 0.00in /  0mm 0 W/m2
03:14 68.4 °F /  20.2 °C 63.4 °F /  17.4 °C 30.21in /  1022.9hPa Calm     81.6% 0.00in /  0mm 0 W/m2
03:19 68.3 °F /  20.2 °C 63.4 °F /  17.4 °C 30.20in /  1022.6hPa Calm     82% 0.00in /  0mm 0 W/m2
03:24 68.2 °F /  20.1 °C 63.3 °F /  17.4 °C 30.21in /  1022.9hPa Calm     82% 0.00in /  0mm 0 W/m2
03:29 67.9 °F /  19.9 °C 63.1 °F /  17.3 °C 30.21in /  1022.9hPa Calm     82% 0.00in /  0mm 0 W/m2
03:34 67.8 °F /  19.9 °C 63 °F /  17.2 °C 30.21in /  1022.9hPa Calm     82% 0.00in /  0mm 0 W/m2
03:39 67.6 °F /  19.8 °C 63.1 °F /  17.3 °C 30.21in /  1022.9hPa Calm     83% 0.00in /  0mm 0 W/m2
03:44 67.6 °F /  19.8 °C 63.1 °F /  17.3 °C 30.21in /  1022.9hPa Calm     83% 0.00in /  0mm 0 W/m2
03:49 67.5 °F /  19.7 °C 63 °F /  17.2 °C 30.21in /  1022.9hPa Calm   1mph /  1.6km/h 83% 0.00in /  0mm 0 W/m2
03:54 67.3 °F /  19.6 °C 62.8 °F /  17.1 °C 30.21in /  1022.9hPa ESE 1.2mph /  1.9km/h 4mph /  6.4km/h 83% 0.00in /  0mm 0 W/m2
03:59 67.2 °F /  19.6 °C 63 °F /  17.2 °C 30.21in /  1022.9hPa ESE 0.4mph /  0.6km/h 3mph /  4.8km/h 84% 0.00in /  0mm 0 W/m2
04:04 67 °F /  19.4 °C 62.9 °F /  17.2 °C 30.21in /  1022.9hPa ESE 0.2mph /  0.3km/h 3mph /  4.8km/h 84% 0.00in /  0mm 0 W/m2
04:09 66.9 °F /  19.4 °C 62.8 °F /  17.1 °C 30.21in /  1022.9hPa ESE 1.6mph /  2.6km/h 4mph /  6.4km/h 84.2% 0.00in /  0mm 0 W/m2
04:14 66.7 °F /  19.3 °C 63 °F /  17.2 °C 30.21in /  1022.9hPa ESE 0.9mph /  1.4km/h 4mph /  6.4km/h 85% 0.00in /  0mm 0 W/m2
04:19 66.7 °F /  19.3 °C 62.9 °F /  17.2 °C 30.21in /  1022.9hPa ESE 0.8mph /  1.3km/h 3mph /  4.8km/h 85% 0.00in /  0mm 0 W/m2
04:24 66.6 °F /  19.2 °C 62.8 °F /  17.1 °C 30.21in /  1022.9hPa ESE 0.2mph /  0.3km/h 3mph /  4.8km/h 85% 0.00in /  0mm 0 W/m2
04:29 66.5 °F /  19.2 °C 62.7 °F /  17.1 °C 30.21in /  1022.9hPa ESE 0.9mph /  1.4km/h 4mph /  6.4km/h 85% 0.00in /  0mm 0 W/m2
04:34 66.4 °F /  19.1 °C 62.6 °F /  17 °C 30.21in /  1022.9hPa ESE 2.4mph /  3.9km/h 4mph /  6.4km/h 85% 0.00in /  0mm 0 W/m2
04:39 66.4 °F /  19.1 °C 62.6 °F /  17 °C 30.21in /  1022.9hPa ESE 0.2mph /  0.3km/h 3mph /  4.8km/h 85% 0.00in /  0mm 0 W/m2
04:44 66.4 °F /  19.1 °C 63 °F /  17.2 °C 30.21in /  1022.9hPa ESE 0.8mph /  1.3km/h 3mph /  4.8km/h 86% 0.00in /  0mm 0 W/m2
04:49 66.2 °F /  19 °C 62.8 °F /  17.1 °C 30.21in /  1022.9hPa ESE 0.4mph /  0.6km/h 3mph /  4.8km/h 86% 0.00in /  0mm 0 W/m2
04:54 66 °F /  18.9 °C 62.6 °F /  17 °C 30.21in /  1022.9hPa ESE 0.6mph /  1km/h 3mph /  4.8km/h 86% 0.00in /  0mm 0 W/m2
04:59 66 °F /  18.9 °C 62.6 °F /  17 °C 30.21in /  1022.9hPa Calm     86% 0.00in /  0mm 0 W/m2
05:04 65.9 °F /  18.8 °C 62.6 °F /  17 °C 30.21in /  1022.9hPa Calm   2mph /  3.2km/h 86% 0.00in /  0mm 0 W/m2
05:09 65.8 °F /  18.8 °C 62.4 °F /  16.9 °C 30.21in /  1022.9hPa ESE 0.4mph /  0.6km/h 2mph /  3.2km/h 86% 0.00in /  0mm 0 W/m2
05:14 65.8 °F /  18.8 °C 62.3 °F /  16.8 °C 30.21in /  1022.9hPa ESE 0.6mph /  1km/h 3mph /  4.8km/h 86% 0.00in /  0mm 0 W/m2
05:19 65.6 °F /  18.7 °C 62.1 °F /  16.7 °C 30.21in /  1022.9hPa ESE 1mph /  1.6km/h 3mph /  4.8km/h 86% 0.00in /  0mm 0 W/m2
05:24 65.5 °F /  18.6 °C 62.3 °F /  16.8 °C 30.21in /  1022.9hPa ESE 0.4mph /  0.6km/h 2mph /  3.2km/h 86.6% 0.00in /  0mm 0 W/m2
05:29 65.3 °F /  18.5 °C 62.2 °F /  16.8 °C 30.21in /  1022.9hPa Calm   2mph /  3.2km/h 86.8% 0.00in /  0mm 5 W/m2
05:34 65.3 °F /  18.5 °C 62.2 °F /  16.8 °C 30.21in /  1022.9hPa ESE 0.6mph /  1km/h 3mph /  4.8km/h 87% 0.00in /  0mm 7 W/m2
05:39 65.2 °F /  18.4 °C 62.2 °F /  16.8 °C 30.21in /  1022.9hPa Calm   2mph /  3.2km/h 87% 0.00in /  0mm 11 W/m2
05:44 65 °F /  18.3 °C 62 °F /  16.7 °C 30.22in /  1023.2hPa Calm   3mph /  4.8km/h 87% 0.00in /  0mm 14 W/m2
05:49 64.9 °F /  18.3 °C 61.9 °F /  16.6 °C 30.22in /  1023.2hPa ESE 1.6mph /  2.6km/h 4mph /  6.4km/h 87% 0.00in /  0mm 18 W/m2
05:54 64.8 °F /  18.2 °C 61.7 °F /  16.5 °C 30.22in /  1023.2hPa ESE 1mph /  1.6km/h 3mph /  4.8km/h 87% 0.00in /  0mm 18 W/m2
05:59 64.8 °F /  18.2 °C 61.7 °F /  16.5 °C 30.22in /  1023.2hPa ESE 0.6mph /  1km/h 3mph /  4.8km/h 87% 0.00in /  0mm 21 W/m2
06:04 64.7 °F /  18.2 °C 62 °F /  16.7 °C 30.22in /  1023.2hPa ESE 0.8mph /  1.3km/h 3mph /  4.8km/h 88% 0.00in /  0mm 25 W/m2
06:09 64.8 °F /  18.2 °C 61.9 °F /  16.6 °C 30.22in /  1023.2hPa Calm   1mph /  1.6km/h 87.6% 0.00in /  0mm 28 W/m2
06:14 64.8 °F /  18.2 °C 62.1 °F /  16.7 °C 30.22in /  1023.2hPa Calm     88% 0.00in /  0mm 30 W/m2
06:19 64.8 °F /  18.2 °C 62.1 °F /  16.7 °C 30.22in /  1023.2hPa Calm     88% 0.00in /  0mm 33 W/m2
06:24 64.9 °F /  18.3 °C 62.2 °F /  16.8 °C 30.22in /  1023.2hPa Calm     88% 0.00in /  0mm 37 W/m2
06:29 64.9 °F /  18.3 °C 62.2 °F /  16.8 °C 30.22in /  1023.2hPa ESE 0.4mph /  0.6km/h 2mph /  3.2km/h 88% 0.00in /  0mm 39 W/m2
06:34 64.9 °F /  18.3 °C 62.2 °F /  16.8 °C 30.22in /  1023.2hPa Calm   1mph /  1.6km/h 88% 0.00in /  0mm 42 W/m2
06:39 65.1 °F /  18.4 °C 62.4 °F /  16.9 °C 30.22in /  1023.2hPa Calm     88% 0.00in /  0mm 46 W/m2
06:44 65.1 °F /  18.4 °C 62.2 °F /  16.8 °C 30.22in /  1023.2hPa Calm     87.2% 0.00in /  0mm 49 W/m2
06:49 65.1 °F /  18.4 °C 62.1 °F /  16.7 °C 30.22in /  1023.2hPa Calm     87% 0.00in /  0mm 54 W/m2
06:53 65.1 °F /  18.4 °C 62.1 °F /  16.7 °C 30.22in /  1023.2hPa Calm     87% 0.00in /  0mm 62 W/m2
06:59 65.3 °F /  18.5 °C 62.2 °F /  16.8 °C 30.22in /  1023.2hPa Calm     87% 0.00in /  0mm 69 W/m2
07:04 65.5 °F /  18.6 °C 62.4 °F /  16.9 °C 30.22in /  1023.2hPa Calm     87% 0.00in /  0mm 81 W/m2
07:09 65.7 °F /  18.7 °C 62.6 °F /  17 °C 30.22in /  1023.2hPa Calm     87% 0.00in /  0mm 93 W/m2
07:14 65.8 °F /  18.8 °C 62.8 °F /  17.1 °C 30.23in /  1023.6hPa Calm     87% 0.00in /  0mm 105 W/m2
07:19 66.1 °F /  18.9 °C 62.8 °F /  17.1 °C 30.23in /  1023.6hPa Calm     86.4% 0.00in /  0mm 120 W/m2
07:24 66.4 °F /  19.1 °C 63 °F /  17.2 °C 30.23in /  1023.6hPa Calm     86% 0.00in /  0mm 134 W/m2
07:29 66.6 °F /  19.2 °C 63 °F /  17.2 °C 30.22in /  1023.2hPa ESE 0.2mph /  0.3km/h 4mph /  6.4km/h 85.4% 0.00in /  0mm 146 W/m2
07:34 66.9 °F /  19.4 °C 63.2 °F /  17.3 °C 30.22in /  1023.2hPa ESE 1.5mph /  2.4km/h 4mph /  6.4km/h 85% 0.00in /  0mm 158 W/m2
07:39 67.4 °F /  19.7 °C 63.3 °F /  17.4 °C 30.22in /  1023.2hPa ESE 1.2mph /  1.9km/h 4mph /  6.4km/h 84.4% 0.00in /  0mm 172 W/m2
07:44 67.5 °F /  19.7 °C 63.2 °F /  17.3 °C 30.22in /  1023.2hPa ESE 0.9mph /  1.4km/h 5mph /  8km/h 83.6% 0.00in /  0mm 186 W/m2
07:49 67.9 °F /  19.9 °C 63.3 °F /  17.4 °C 30.22in /  1023.2hPa ESE 0.6mph /  1km/h 4mph /  6.4km/h 82.8% 0.00in /  0mm 200 W/m2
07:54 68.3 °F /  20.2 °C 63.3 °F /  17.4 °C 30.22in /  1023.2hPa ESE 2.2mph /  3.5km/h 7mph /  11.3km/h 82% 0.00in /  0mm 213 W/m2
07:59 68.6 °F /  20.3 °C 63.5 °F /  17.5 °C 30.22in /  1023.2hPa ESE 3mph /  4.8km/h 5mph /  8km/h 81.3% 0.00in /  0mm 227 W/m2
08:04 68.9 °F /  20.5 °C 63.6 °F /  17.6 °C 30.22in /  1023.2hPa ESE 1.8mph /  2.9km/h 7mph /  11.3km/h 80.6% 0.00in /  0mm 241 W/m2
08:09 69.2 °F /  20.7 °C 63.5 °F /  17.5 °C 30.22in /  1023.2hPa ESE 3mph /  4.8km/h 5mph /  8km/h 79.6% 0.00in /  0mm 255 W/m2
08:14 69.8 °F /  21 °C 63.8 °F /  17.7 °C 30.22in /  1023.2hPa ESE 1.8mph /  2.9km/h 5mph /  8km/h 78.8% 0.00in /  0mm 265 W/m2
08:19 70.2 °F /  21.2 °C 63.7 °F /  17.6 °C 30.22in /  1023.2hPa ESE 1mph /  1.6km/h 5mph /  8km/h 77.6% 0.00in /  0mm 281 W/m2
08:24 70.7 °F /  21.5 °C 64 °F /  17.8 °C 30.22in /  1023.2hPa ESE 0.2mph /  0.3km/h 2mph /  3.2km/h 77% 0.00in /  0mm 299 W/m2
08:29 71.1 °F /  21.7 °C 64.3 °F /  17.9 °C 30.22in /  1023.2hPa ESE 1mph /  1.6km/h 4mph /  6.4km/h 76.6% 0.00in /  0mm 313 W/m2
08:34 71.3 °F /  21.8 °C 64.3 °F /  17.9 °C 30.22in /  1023.2hPa ESE 0.4mph /  0.6km/h 2mph /  3.2km/h 76% 0.00in /  0mm 330 W/m2
08:39 71.4 °F /  21.9 °C 64.2 °F /  17.9 °C 30.22in /  1023.2hPa ESE 0.2mph /  0.3km/h 3mph /  4.8km/h 75.6% 0.00in /  0mm 343 W/m2
08:44 71.3 °F /  21.8 °C 63.9 °F /  17.7 °C 30.22in /  1023.2hPa ESE 0.4mph /  0.6km/h 4mph /  6.4km/h 75% 0.00in /  0mm 357 W/m2
08:49 71.1 °F /  21.7 °C 63.9 °F /  17.7 °C 30.22in /  1023.2hPa Calm   5mph /  8km/h 75.6% 0.00in /  0mm 373 W/m2
08:54 71.8 °F /  22.1 °C 64.6 °F /  18.1 °C 30.22in /  1023.2hPa Calm   3mph /  4.8km/h 75.6% 0.00in /  0mm 387 W/m2
08:59 72.5 °F /  22.5 °C 64.6 °F /  18.1 °C 30.22in /  1023.2hPa Calm   3mph /  4.8km/h 74% 0.00in /  0mm 401 W/m2
09:03 73.1 °F /  22.8 °C 64.9 °F /  18.3 °C 30.22in /  1023.2hPa ESE 2mph /  3.2km/h 4mph /  6.4km/h 73.3% 0.00in /  0mm 413 W/m2
09:09 73.8 °F /  23.2 °C 65.3 °F /  18.5 °C 30.22in /  1023.2hPa ESE 0.8mph /  1.3km/h 4mph /  6.4km/h 72.6% 0.00in /  0mm 427 W/m2
09:14 74 °F /  23.3 °C 65.1 °F /  18.4 °C 30.22in /  1023.2hPa Calm   4mph /  6.4km/h 71.8% 0.00in /  0mm 441 W/m2
09:19 74.4 °F /  23.6 °C 65.6 °F /  18.7 °C 30.22in /  1023.2hPa Calm   4mph /  6.4km/h 72% 0.00in /  0mm 454 W/m2
09:24 74.2 °F /  23.4 °C 65.2 °F /  18.4 °C 30.22in /  1023.2hPa ESE 1.8mph /  2.9km/h 7mph /  11.3km/h 71.4% 0.00in /  0mm 464 W/m2
09:29 74.5 °F /  23.6 °C 65.6 °F /  18.7 °C 30.22in /  1023.2hPa ESE 3.6mph /  5.8km/h 5mph /  8km/h 71.8% 0.00in /  0mm 476 W/m2
09:34 74.8 °F /  23.8 °C 65.8 °F /  18.8 °C 30.22in /  1023.2hPa ESE 1.4mph /  2.3km/h 5mph /  8km/h 71.2% 0.00in /  0mm 489 W/m2
09:39 74.8 °F /  23.8 °C 65.7 °F /  18.7 °C 30.22in /  1023.2hPa Calm   1mph /  1.6km/h 71.2% 0.00in /  0mm 499 W/m2
09:44 75.1 °F /  23.9 °C 66.1 °F /  18.9 °C 30.22in /  1023.2hPa Calm   1mph /  1.6km/h 71.4% 0.00in /  0mm 512 W/m2
09:49 76.3 °F /  24.6 °C 66.2 °F /  19 °C 30.22in /  1023.2hPa Calm   1mph /  1.6km/h 69% 0.00in /  0mm 524 W/m2
09:54 76.3 °F /  24.6 °C 66.1 °F /  18.9 °C 30.22in /  1023.2hPa ESE 1.6mph /  2.6km/h 5mph /  8km/h 68.8% 0.00in /  0mm 533 W/m2
09:59 75.8 °F /  24.3 °C 65.6 °F /  18.7 °C 30.22in /  1023.2hPa ESE 1.3mph /  2.1km/h 4mph /  6.4km/h 68.6% 0.00in /  0mm 541 W/m2
10:04 76.3 °F /  24.6 °C 66.2 °F /  19 °C 30.22in /  1023.2hPa ESE 1.8mph /  2.9km/h 4mph /  6.4km/h 69% 0.00in /  0mm 557 W/m2
10:09 77 °F /  25 °C 66.6 °F /  19.2 °C 30.22in /  1023.2hPa ESE 2.5mph /  4km/h 5mph /  8km/h 68.4% 0.00in /  0mm 570 W/m2
10:14 78.1 °F /  25.6 °C 66.8 °F /  19.3 °C 30.22in /  1023.2hPa ESE 1.7mph /  2.7km/h 5mph /  8km/h 66.6% 0.00in /  0mm 578 W/m2
10:19 78.4 °F /  25.8 °C 67 °F /  19.4 °C 30.22in /  1023.2hPa ESE 1.2mph /  1.9km/h 5mph /  8km/h 66.2% 0.00in /  0mm 591 W/m2
10:24 79.3 °F /  26.3 °C 67.5 °F /  19.7 °C 30.22in /  1023.2hPa ESE 2mph /  3.2km/h 7mph /  11.3km/h 65.3% 0.00in /  0mm 598 W/m2
10:29 79.2 °F /  26.2 °C 67.2 °F /  19.6 °C 30.22in /  1023.2hPa ESE 2.2mph /  3.5km/h 4mph /  6.4km/h 65% 0.00in /  0mm 608 W/m2
10:34 79.4 °F /  26.3 °C 67.4 °F /  19.7 °C 30.22in /  1023.2hPa ESE 2.9mph /  4.7km/h 5mph /  8km/h 64.8% 0.00in /  0mm 619 W/m2
10:39 78 °F /  25.6 °C 66.4 °F /  19.1 °C 30.22in /  1023.2hPa ESE 3.8mph /  6.1km/h 8mph /  12.9km/h 65.6% 0.00in /  0mm 628 W/m2
10:44 77.1 °F /  25.1 °C 66.6 °F /  19.2 °C 30.22in /  1023.2hPa ESE 2.5mph /  4km/h 9mph /  14.5km/h 68% 0.00in /  0mm 636 W/m2
10:49 77.9 °F /  25.5 °C 67 °F /  19.4 °C 30.22in /  1023.2hPa ESE 2.9mph /  4.7km/h 8mph /  12.9km/h 67.2% 0.00in /  0mm 645 W/m2
10:54 78.3 °F /  25.7 °C 67.1 °F /  19.5 °C 30.22in /  1023.2hPa ESE 1mph /  1.6km/h 7mph /  11.3km/h 66.6% 0.00in /  0mm 657 W/m2
10:59 79.9 °F /  26.6 °C 67.6 °F /  19.8 °C 30.21in /  1022.9hPa Calm   7mph /  11.3km/h 64.4% 0.00in /  0mm 664 W/m2
11:04 80.1 °F /  26.7 °C 67.4 °F /  19.7 °C 30.21in /  1022.9hPa ESE 1.7mph /  2.7km/h 8mph /  12.9km/h 63.6% 0.00in /  0mm 670 W/m2
11:09 78.4 °F /  25.8 °C 66.7 °F /  19.3 °C 30.21in /  1022.9hPa ESE 1.3mph /  2.1km/h 8mph /  12.9km/h 65.6% 0.00in /  0mm 679 W/m2
11:14 79.3 °F /  26.3 °C 67.3 °F /  19.6 °C 30.21in /  1022.9hPa ESE 2.6mph /  4.2km/h 7mph /  11.3km/h 64.6% 0.00in /  0mm 686 W/m2
11:19 78.9 °F /  26.1 °C 66.7 °F /  19.3 °C 30.21in /  1022.9hPa ESE 0.8mph /  1.3km/h 5mph /  8km/h 64.4% 0.00in /  0mm 691 W/m2
11:24 79.3 °F /  26.3 °C 66.8 °F /  19.3 °C 30.21in /  1022.9hPa SE 3.2mph /  5.1km/h 7mph /  11.3km/h 63.5% 0.00in /  0mm 696 W/m2
11:29 78.9 °F /  26.1 °C 66.5 °F /  19.2 °C 30.21in /  1022.9hPa SSE 2.2mph /  3.5km/h 8mph /  12.9km/h 64% 0.00in /  0mm 707 W/m2
11:34 79.7 °F /  26.5 °C 66.8 °F /  19.3 °C 30.21in /  1022.9hPa SSE 1.4mph /  2.3km/h 7mph /  11.3km/h 63% 0.00in /  0mm 707 W/m2
11:39 79.4 °F /  26.3 °C 66.8 °F /  19.3 °C 30.21in /  1022.9hPa SSE 1.7mph /  2.7km/h 7mph /  11.3km/h 63.4% 0.00in /  0mm 724 W/m2
11:44 80.6 °F /  27 °C 67.5 °F /  19.7 °C 30.21in /  1022.9hPa SE 1.8mph /  2.9km/h 9mph /  14.5km/h 62.6% 0.00in /  0mm 729 W/m2
11:49 80.3 °F /  26.8 °C 67 °F /  19.4 °C 30.21in /  1022.9hPa SE 1.7mph /  2.7km/h 5mph /  8km/h 62.2% 0.00in /  0mm 735 W/m2
11:54 80.2 °F /  26.8 °C 67 °F /  19.4 °C 30.21in /  1022.9hPa SE 1.6mph /  2.6km/h 7mph /  11.3km/h 62.2% 0.00in /  0mm 733 W/m2
11:59 81 °F /  27.2 °C 67.5 °F /  19.7 °C 30.21in /  1022.9hPa SE 1.7mph /  2.7km/h 7mph /  11.3km/h 61.8% 0.00in /  0mm 738 W/m2
12:04 81 °F /  27.2 °C 67.2 °F /  19.6 °C 30.21in /  1022.9hPa SSE 2.9mph /  4.7km/h 9mph /  14.5km/h 61.2% 0.00in /  0mm 768 W/m2
12:09 81.2 °F /  27.3 °C 67.3 °F /  19.6 °C 30.21in /  1022.9hPa SE 2.4mph /  3.9km/h 6mph /  9.7km/h 61% 0.00in /  0mm 791 W/m2
12:14 81.8 °F /  27.7 °C 67.5 °F /  19.7 °C 30.21in /  1022.9hPa SE 1.3mph /  2.1km/h 8mph /  12.9km/h 60.2% 0.00in /  0mm 780 W/m2
12:19 82.3 °F /  27.9 °C 67.6 °F /  19.8 °C 30.20in /  1022.6hPa SE 5.2mph /  8.4km/h 12mph /  19.3km/h 59.4% 0.00in /  0mm 838 W/m2
12:24 82.4 °F /  28 °C 67.6 °F /  19.8 °C 30.21in /  1022.9hPa ESE 3.7mph /  6km/h 11mph /  17.7km/h 59.2% 0.00in /  0mm 849 W/m2
12:29 82.4 °F /  28 °C 67.3 °F /  19.6 °C 30.20in /  1022.6hPa SSE 5.3mph /  8.5km/h 11mph /  17.7km/h 58.6% 0.00in /  0mm 846 W/m2
12:34 81.1 °F /  27.3 °C 66.6 °F /  19.2 °C 30.20in /  1022.6hPa SSE 5.8mph /  9.3km/h 10mph /  16.1km/h 59.8% 0.00in /  0mm 854 W/m2
12:39 81.2 °F /  27.3 °C 66.7 °F /  19.3 °C 30.20in /  1022.6hPa SSE 5.2mph /  8.4km/h 9mph /  14.5km/h 59.8% 0.00in /  0mm 879 W/m2
12:44 81.2 °F /  27.3 °C 66.6 °F /  19.2 °C 30.20in /  1022.6hPa SSE 2.8mph /  4.5km/h 9mph /  14.5km/h 59.4% 0.00in /  0mm 882 W/m2
12:49 83 °F /  28.3 °C 67.9 °F /  19.9 °C 30.20in /  1022.6hPa SE 5.2mph /  8.4km/h 9mph /  14.5km/h 58.8% 0.00in /  0mm 853 W/m2
12:54 83.6 °F /  28.7 °C 67.5 °F /  19.7 °C 30.20in /  1022.6hPa SE 3.6mph /  5.8km/h 8mph /  12.9km/h 56.8% 0.00in /  0mm 842 W/m2
12:59 83.7 °F /  28.7 °C 67.1 °F /  19.5 °C 30.19in /  1022.2hPa ESE 3.2mph /  5.1km/h 8mph /  12.9km/h 56% 0.00in /  0mm 830 W/m2
13:04 83.2 °F /  28.4 °C 67.1 °F /  19.5 °C 30.19in /  1022.2hPa SE 4.3mph /  6.9km/h 9mph /  14.5km/h 56.8% 0.00in /  0mm 842 W/m2
13:09 83.8 °F /  28.8 °C 67.9 °F /  19.9 °C 30.19in /  1022.2hPa ESE 3mph /  4.8km/h 9mph /  14.5km/h 57.2% 0.00in /  0mm 819 W/m2
13:14 85.8 °F /  29.9 °C 68.6 °F /  20.3 °C 30.19in /  1022.2hPa ESE 3.5mph /  5.6km/h 8mph /  12.9km/h 55.2% 0.00in /  0mm 819 W/m2
13:19 85.5 °F /  29.7 °C 68 °F /  20 °C 30.19in /  1022.2hPa SE 3.6mph /  5.8km/h 12mph /  19.3km/h 54.4% 0.00in /  0mm 821 W/m2
13:24 83.4 °F /  28.6 °C 67.2 °F /  19.6 °C 30.19in /  1022.2hPa SSE 5.3mph /  8.5km/h 9mph /  14.5km/h 56.6% 0.00in /  0mm 831 W/m2
13:29 82.8 °F /  28.2 °C 66.2 °F /  19 °C 30.19in /  1022.2hPa SSE 2.6mph /  4.2km/h 7mph /  11.3km/h 55.8% 0.00in /  0mm 849 W/m2
13:34 83.7 °F /  28.7 °C 66.2 °F /  19 °C 30.18in /  1021.9hPa SSE 6.1mph /  9.8km/h 10mph /  16.1km/h 54.2% 0.00in /  0mm 867 W/m2
13:39 83.2 °F /  28.4 °C 66.4 °F /  19.1 °C 30.19in /  1022.2hPa SSE 4.5mph /  7.2km/h 10mph /  16.1km/h 55.5% 0.00in /  0mm 877 W/m2
13:44 83 °F /  28.3 °C 66.4 °F /  19.1 °C 30.18in /  1021.9hPa SSE 4.1mph /  6.6km/h 9mph /  14.5km/h 55.8% 0.00in /  0mm 860 W/m2
13:49 82.6 °F /  28.1 °C 66.2 °F /  19 °C 30.18in /  1021.9hPa SSE 2.2mph /  3.5km/h 9mph /  14.5km/h 56% 0.00in /  0mm 846 W/m2
13:54 83.4 °F /  28.6 °C 67.1 °F /  19.5 °C 30.18in /  1021.9hPa SSE 2.8mph /  4.5km/h 6mph /  9.7km/h 56.4% 0.00in /  0mm 846 W/m2
13:59 83.7 °F /  28.7 °C 66 °F /  18.9 °C 30.18in /  1021.9hPa SSE 6.4mph /  10.3km/h 10mph /  16.1km/h 53.8% 0.00in /  0mm 838 W/m2
14:04 82.9 °F /  28.3 °C 65.2 °F /  18.4 °C 30.18in /  1021.9hPa SSE 4.5mph /  7.2km/h 11mph /  17.7km/h 53.6% 0.00in /  0mm 837 W/m2
14:09 83 °F /  28.3 °C 65.5 °F /  18.6 °C 30.17in /  1021.6hPa SSE 5.2mph /  8.4km/h 11mph /  17.7km/h 54% 0.00in /  0mm 826 W/m2
14:14 82.5 °F /  28.1 °C 65.4 °F /  18.6 °C 30.17in /  1021.6hPa SSE 4mph /  6.4km/h 11mph /  17.7km/h 54.8% 0.00in /  0mm 805 W/m2
14:19 83.3 °F /  28.5 °C 64.9 °F /  18.3 °C 30.17in /  1021.6hPa SSE 2.1mph /  3.4km/h 9mph /  14.5km/h 52.4% 0.00in /  0mm 255 W/m2
14:24 84.2 °F /  29 °C 65.9 °F /  18.8 °C 30.17in /  1021.6hPa SSE 1.4mph /  2.3km/h 7mph /  11.3km/h 52.8% 0.00in /  0mm 809 W/m2
14:29 84.2 °F /  29 °C 65.9 °F /  18.8 °C 30.17in /  1021.6hPa SSE 4.8mph /  7.7km/h 13mph /  20.9km/h 52.8% 0.00in /  0mm 824 W/m2
14:34 83.9 °F /  28.8 °C 65.4 °F /  18.6 °C 30.17in /  1021.6hPa South 2mph /  3.2km/h 13mph /  20.9km/h 52.5% 0.00in /  0mm 823 W/m2
14:39 83.7 °F /  28.7 °C 65.4 °F /  18.6 °C 30.17in /  1021.6hPa South 4.4mph /  7.1km/h 8mph /  12.9km/h 52.8% 0.00in /  0mm 814 W/m2
14:44 83.9 °F /  28.8 °C 65.8 °F /  18.8 °C 30.17in /  1021.6hPa South 6mph /  9.7km/h 9mph /  14.5km/h 53% 0.00in /  0mm 816 W/m2
14:49 84.5 °F /  29.2 °C 66 °F /  18.9 °C 30.17in /  1021.6hPa South 4.7mph /  7.6km/h 9mph /  14.5km/h 52.4% 0.00in /  0mm 810 W/m2
14:54 83.8 °F /  28.8 °C 65.3 °F /  18.5 °C 30.16in /  1021.2hPa South 2.5mph /  4km/h 6mph /  9.7km/h 52.4% 0.00in /  0mm 847 W/m2
14:59 85 °F /  29.4 °C 66.5 °F /  19.2 °C 30.16in /  1021.2hPa SE 4.8mph /  7.7km/h 8mph /  12.9km/h 52.4% 0.00in /  0mm 840 W/m2
15:04 87.2 °F /  30.7 °C 66.9 °F /  19.4 °C 30.16in /  1021.2hPa ESE 2.1mph /  3.4km/h 8mph /  12.9km/h 49.6% 0.00in /  0mm 828 W/m2
15:09 86.4 °F /  30.2 °C 66 °F /  18.9 °C 30.16in /  1021.2hPa ESE 1mph /  1.6km/h 6mph /  9.7km/h 49.4% 0.00in /  0mm 239 W/m2
15:14 85.5 °F /  29.7 °C 66 °F /  18.9 °C 30.16in /  1021.2hPa Calm   6mph /  9.7km/h 50.8% 0.00in /  0mm 772 W/m2
15:19 85 °F /  29.4 °C 66.2 °F /  19 °C 30.16in /  1021.2hPa Calm   1mph /  1.6km/h 51.8% 0.00in /  0mm 758 W/m2
15:24 85.1 °F /  29.5 °C 66.1 °F /  18.9 °C 30.16in /  1021.2hPa SE 1.8mph /  2.9km/h 9mph /  14.5km/h 51.6% 0.00in /  0mm 185 W/m2
15:29 83.6 °F /  28.7 °C 65.1 °F /  18.4 °C 30.16in /  1021.2hPa SSE 2.7mph /  4.3km/h 8mph /  12.9km/h 52.3% 0.00in /  0mm 181 W/m2
15:34 82.8 °F /  28.2 °C 65 °F /  18.3 °C 30.16in /  1021.2hPa Calm   6mph /  9.7km/h 53.4% 0.00in /  0mm 197 W/m2
15:39 83.7 °F /  28.7 °C 65.7 °F /  18.7 °C 30.15in /  1020.9hPa SE 2.4mph /  3.9km/h 6mph /  9.7km/h 53.4% 0.00in /  0mm 773 W/m2
15:44 84.7 °F /  29.3 °C 65.5 °F /  18.6 °C 30.15in /  1020.9hPa SE 2.2mph /  3.5km/h 8mph /  12.9km/h 51.2% 0.00in /  0mm 728 W/m2
15:49 83.9 °F /  28.8 °C 65.7 °F /  18.7 °C 30.15in /  1020.9hPa SE 3.7mph /  6km/h 7mph /  11.3km/h 53% 0.00in /  0mm 163 W/m2
15:54 83.2 °F /  28.4 °C 64.7 °F /  18.2 °C 30.15in /  1020.9hPa SSE 2.5mph /  4km/h 7mph /  11.3km/h 52.2% 0.00in /  0mm 155 W/m2
15:59 82.9 °F /  28.3 °C 64.6 °F /  18.1 °C 30.15in /  1020.9hPa SSE 1.4mph /  2.3km/h 5mph /  8km/h 52.4% 0.00in /  0mm 202 W/m2
16:04 83.9 °F /  28.8 °C 65 °F /  18.3 °C 30.14in /  1020.5hPa SSE 2.4mph /  3.9km/h 8mph /  12.9km/h 51.6% 0.00in /  0mm 759 W/m2
16:09 84.3 °F /  29.1 °C 65 °F /  18.3 °C 30.14in /  1020.5hPa SSE 2.5mph /  4km/h 5mph /  8km/h 51% 0.00in /  0mm 759 W/m2
16:14 84.6 °F /  29.2 °C 65.4 °F /  18.6 °C 30.14in /  1020.5hPa SSE 4.8mph /  7.7km/h 10mph /  16.1km/h 51% 0.00in /  0mm 724 W/m2
16:19 84 °F /  28.9 °C 65.3 °F /  18.5 °C 30.14in /  1020.5hPa SSE 1.2mph /  1.9km/h 7mph /  11.3km/h 52% 0.00in /  0mm 642 W/m2
16:24 84.5 °F /  29.2 °C 65.6 °F /  18.7 °C 30.14in /  1020.5hPa SSE 0.6mph /  1km/h 5mph /  8km/h 51.6% 0.00in /  0mm 142 W/m2
16:29 84.8 °F /  29.3 °C 65.6 °F /  18.7 °C 30.14in /  1020.5hPa Calm   3mph /  4.8km/h 51% 0.00in /  0mm 142 W/m2
16:34 84.7 °F /  29.3 °C 64.7 °F /  18.2 °C 30.14in /  1020.5hPa Calm   3mph /  4.8km/h 49.8% 0.00in /  0mm 171 W/m2
16:39 84.9 °F /  29.4 °C 64.9 °F /  18.3 °C 30.14in /  1020.5hPa Calm     49.8% 0.00in /  0mm 649 W/m2
16:44 85.6 °F /  29.8 °C 64.5 °F /  18.1 °C 30.14in /  1020.5hPa Calm   4mph /  6.4km/h 48% 0.00in /  0mm 666 W/m2
16:49 85 °F /  29.4 °C 64.3 °F /  17.9 °C 30.14in /  1020.5hPa SSE 3.7mph /  6km/h 8mph /  12.9km/h 48.6% 0.00in /  0mm 622 W/m2
16:54 84.3 °F /  29.1 °C 64.8 °F /  18.2 °C 30.14in /  1020.5hPa SSE 4.6mph /  7.4km/h 8mph /  12.9km/h 50.4% 0.00in /  0mm 598 W/m2
16:59 83.9 °F /  28.8 °C 64.8 °F /  18.2 °C 30.13in /  1020.2hPa SSE 2.6mph /  4.2km/h 7mph /  11.3km/h 51.2% 0.00in /  0mm 552 W/m2
17:04 84 °F /  28.9 °C 64.9 °F /  18.3 °C 30.13in /  1020.2hPa SSE 2.8mph /  4.5km/h 7mph /  11.3km/h 51.4% 0.00in /  0mm 165 W/m2
17:09 84.2 °F /  29 °C 65.4 °F /  18.6 °C 30.13in /  1020.2hPa SSE 3.1mph /  5km/h 8mph /  12.9km/h 51.8% 0.00in /  0mm 547 W/m2
17:14 84.7 °F /  29.3 °C 65.7 °F /  18.7 °C 30.13in /  1020.2hPa SSE 1.7mph /  2.7km/h 5mph /  8km/h 51.4% 0.00in /  0mm 148 W/m2
17:19 85 °F /  29.4 °C 65.2 °F /  18.4 °C 30.13in /  1020.2hPa SSE 0.4mph /  0.6km/h 5mph /  8km/h 50.2% 0.00in /  0mm 179 W/m2
17:24 85.4 °F /  29.7 °C 65.5 °F /  18.6 °C 30.13in /  1020.2hPa SSE 1.3mph /  2.1km/h 4mph /  6.4km/h 50.2% 0.00in /  0mm 492 W/m2
17:29 85.6 °F /  29.8 °C 65.8 °F /  18.8 °C 30.13in /  1020.2hPa SSE 1.2mph /  1.9km/h 3mph /  4.8km/h 50.2% 0.00in /  0mm 327 W/m2
17:34 85.6 °F /  29.8 °C 65.7 °F /  18.7 °C 30.13in /  1020.2hPa SSE 2.1mph /  3.4km/h 7mph /  11.3km/h 50% 0.00in /  0mm 330 W/m2
17:39 85.6 °F /  29.8 °C 65.5 °F /  18.6 °C 30.13in /  1020.2hPa SE 3.9mph /  6.3km/h 9mph /  14.5km/h 49.8% 0.00in /  0mm 353 W/m2
17:44 85.4 °F /  29.7 °C 65.9 °F /  18.8 °C 30.12in /  1019.9hPa SE 2mph /  3.2km/h 6mph /  9.7km/h 51% 0.00in /  0mm 265 W/m2
17:48 85.5 °F /  29.7 °C 66 °F /  18.9 °C 30.12in /  1019.9hPa SE 2.2mph /  3.5km/h 4mph /  6.4km/h 51% 0.00in /  0mm 334 W/m2
17:54 85.6 °F /  29.8 °C 65.9 °F /  18.8 °C 30.12in /  1019.9hPa SE 3.3mph /  5.3km/h 8mph /  12.9km/h 50.4% 0.00in /  0mm 492 W/m2
17:59 84.7 °F /  29.3 °C 65.3 °F /  18.5 °C 30.12in /  1019.9hPa SSE 2.4mph /  3.9km/h 8mph /  12.9km/h 50.8% 0.00in /  0mm 468 W/m2
18:04 84.2 °F /  29 °C 65 °F /  18.3 °C 30.12in /  1019.9hPa SSE 4.1mph /  6.6km/h 8mph /  12.9km/h 51.2% 0.00in /  0mm 459 W/m2
18:09 83.8 °F /  28.8 °C 65.1 °F /  18.4 °C 30.12in /  1019.9hPa SSE 2.9mph /  4.7km/h 8mph /  12.9km/h 52% 0.00in /  0mm 436 W/m2
18:14 83.5 °F /  28.6 °C 64.8 °F /  18.2 °C 30.12in /  1019.9hPa SSE 4.1mph /  6.6km/h 8mph /  12.9km/h 52% 0.00in /  0mm 406 W/m2
18:19 83 °F /  28.3 °C 65 °F /  18.3 °C 30.12in /  1019.9hPa SSE 2.5mph /  4km/h 9mph /  14.5km/h 53% 0.00in /  0mm 404 W/m2
18:24 83.6 °F /  28.7 °C 65.4 °F /  18.6 °C 30.11in /  1019.5hPa SSE 2.9mph /  4.7km/h 7mph /  11.3km/h 53% 0.00in /  0mm 274 W/m2
18:29 83.4 °F /  28.6 °C 64.8 °F /  18.2 °C 30.11in /  1019.5hPa SSE 4.9mph /  7.9km/h 7mph /  11.3km/h 52.2% 0.00in /  0mm 327 W/m2
18:34 82.8 °F /  28.2 °C 64.8 °F /  18.2 °C 30.11in /  1019.5hPa SSE 2.8mph /  4.5km/h 7mph /  11.3km/h 53% 0.00in /  0mm 318 W/m2
18:39 82.9 °F /  28.3 °C 64.7 °F /  18.2 °C 30.11in /  1019.5hPa SSE 3.7mph /  6km/h 7mph /  11.3km/h 52.5% 0.00in /  0mm 306 W/m2
18:44 83 °F /  28.3 °C 65 °F /  18.3 °C 30.11in /  1019.5hPa SSE 4.7mph /  7.6km/h 9mph /  14.5km/h 53% 0.00in /  0mm 299 W/m2
18:49 82.9 °F /  28.3 °C 64.9 °F /  18.3 °C 30.11in /  1019.5hPa SSE 5mph /  8km/h 9mph /  14.5km/h 53% 0.00in /  0mm 287 W/m2
18:54 82.8 °F /  28.2 °C 64.8 °F /  18.2 °C 30.11in /  1019.5hPa South 3.2mph /  5.1km/h 9mph /  14.5km/h 53% 0.00in /  0mm 274 W/m2
18:59 82.9 °F /  28.3 °C 65 °F /  18.3 °C 30.11in /  1019.5hPa SSE 3.8mph /  6.1km/h 7mph /  11.3km/h 53.2% 0.00in /  0mm 251 W/m2
19:04 82.9 °F /  28.3 °C 65.1 °F /  18.4 °C 30.11in /  1019.5hPa SSE 3.3mph /  5.3km/h 8mph /  12.9km/h 53.4% 0.00in /  0mm 244 W/m2
19:09 82.9 °F /  28.3 °C 65.7 °F /  18.7 °C 30.11in /  1019.5hPa SSE 6mph /  9.7km/h 9mph /  14.5km/h 54.6% 0.00in /  0mm 232 W/m2
19:14 82.1 °F /  27.8 °C 66.2 °F /  19 °C 30.11in /  1019.5hPa SSE 5.7mph /  9.2km/h 10mph /  16.1km/h 57% 0.00in /  0mm 230 W/m2
19:19 81.7 °F /  27.6 °C 66.8 °F /  19.3 °C 30.11in /  1019.5hPa SSE 3.2mph /  5.1km/h 6mph /  9.7km/h 59% 0.00in /  0mm 214 W/m2
19:24 81.8 °F /  27.7 °C 67.4 °F /  19.7 °C 30.11in /  1019.5hPa SSE 4.4mph /  7.1km/h 8mph /  12.9km/h 60% 0.00in /  0mm 197 W/m2
19:29 81.3 °F /  27.4 °C 67.4 °F /  19.7 °C 30.11in /  1019.5hPa SSE 3.9mph /  6.3km/h 6mph /  9.7km/h 60.8% 0.00in /  0mm 188 W/m2
19:34 81.2 °F /  27.3 °C 67.1 °F /  19.5 °C 30.11in /  1019.5hPa SSE 4.5mph /  7.2km/h 7mph /  11.3km/h 60.5% 0.00in /  0mm 172 W/m2
19:39 81 °F /  27.2 °C 67.2 °F /  19.6 °C 30.11in /  1019.5hPa SSE 5.3mph /  8.5km/h 9mph /  14.5km/h 61.2% 0.00in /  0mm 163 W/m2
19:44 81 °F /  27.2 °C 67.6 °F /  19.8 °C 30.11in /  1019.5hPa SSE 3.4mph /  5.5km/h 8mph /  12.9km/h 62% 0.00in /  0mm 144 W/m2
19:49 80.9 °F /  27.2 °C 67.6 °F /  19.8 °C 30.12in /  1019.9hPa SSW 2.9mph /  4.7km/h 9mph /  14.5km/h 62% 0.00in /  0mm 130 W/m2
19:54 80.6 °F /  27 °C 67.3 °F /  19.6 °C 30.12in /  1019.9hPa SSW 5mph /  8km/h 9mph /  14.5km/h 62% 0.00in /  0mm 111 W/m2
19:59 80.4 °F /  26.9 °C 67.5 °F /  19.7 °C 30.12in /  1019.9hPa SSW 4.1mph /  6.6km/h 9mph /  14.5km/h 63% 0.00in /  0mm 97 W/m2
20:04 80.2 °F /  26.8 °C 67.3 °F /  19.6 °C 30.12in /  1019.9hPa SSW 4.1mph /  6.6km/h 10mph /  16.1km/h 63% 0.00in /  0mm 83 W/m2
20:09 79.7 °F /  26.5 °C 67 °F /  19.4 °C 30.12in /  1019.9hPa South 4.4mph /  7.1km/h 11mph /  17.7km/h 63.4% 0.00in /  0mm 72 W/m2
20:14 79.4 °F /  26.3 °C 67 °F /  19.4 °C 30.12in /  1019.9hPa South 3.8mph /  6.1km/h 8mph /  12.9km/h 64% 0.00in /  0mm 62 W/m2
20:19 79.3 °F /  26.3 °C 66.8 °F /  19.3 °C 30.12in /  1019.9hPa SSW 1.9mph /  3.1km/h 5mph /  8km/h 64% 0.00in /  0mm 49 W/m2
20:24 79 °F /  26.1 °C 67.1 °F /  19.5 °C 30.12in /  1019.9hPa SSW 3.4mph /  5.5km/h 8mph /  12.9km/h 65% 0.00in /  0mm 42 W/m2
20:29 78.6 °F /  25.9 °C 66.7 °F /  19.3 °C 30.12in /  1019.9hPa SSW 3.3mph /  5.3km/h 8mph /  12.9km/h 65% 0.00in /  0mm 32 W/m2
20:34 78.6 °F /  25.9 °C 67.1 °F /  19.5 °C 30.12in /  1019.9hPa SSW 0.2mph /  0.3km/h 4mph /  6.4km/h 66% 0.00in /  0mm 28 W/m2
20:39 78.8 °F /  26 °C 67.3 °F /  19.6 °C 30.12in /  1019.9hPa SSW 0.8mph /  1.3km/h 3mph /  4.8km/h 66% 0.00in /  0mm 23 W/m2
20:44 78.5 °F /  25.8 °C 66.9 °F /  19.4 °C 30.12in /  1019.9hPa SSW 2.1mph /  3.4km/h 5mph /  8km/h 66% 0.00in /  0mm 19 W/m2
20:49 78.2 °F /  25.7 °C 67.2 °F /  19.6 °C 30.12in /  1019.9hPa SSW 2.6mph /  4.2km/h 6mph /  9.7km/h 67% 0.00in /  0mm 18 W/m2
20:53 77.7 °F /  25.4 °C 66.9 °F /  19.4 °C 30.12in /  1019.9hPa SW 3.7mph /  6km/h 9mph /  14.5km/h 67.8% 0.00in /  0mm 14 W/m2
20:59 77.4 °F /  25.2 °C 66.7 °F /  19.3 °C 30.12in /  1019.9hPa SW 1.2mph /  1.9km/h 6mph /  9.7km/h 68% 0.00in /  0mm 11 W/m2
21:04 77.2 °F /  25.1 °C 66.7 °F /  19.3 °C 30.12in /  1019.9hPa SW 1.2mph /  1.9km/h 4mph /  6.4km/h 68% 0.00in /  0mm 9 W/m2
21:09 77 °F /  25 °C 66.7 °F /  19.3 °C 30.12in /  1019.9hPa SW 0.6mph /  1km/h 4mph /  6.4km/h 68.2% 0.00in /  0mm 5 W/m2
21:14 76.7 °F /  24.8 °C 66.6 °F /  19.2 °C 30.13in /  1020.2hPa SW 2mph /  3.2km/h 4mph /  6.4km/h 69% 0.00in /  0mm 0 W/m2
21:19 76.5 °F /  24.7 °C 66.4 °F /  19.1 °C 30.13in /  1020.2hPa SW 0.8mph /  1.3km/h 3mph /  4.8km/h 69% 0.00in /  0mm 0 W/m2
21:24 76.5 °F /  24.7 °C 66.4 °F /  19.1 °C 30.12in /  1019.9hPa Calm     69.2% 0.00in /  0mm 0 W/m2
21:29 76.3 °F /  24.6 °C 66.2 °F /  19 °C 30.12in /  1019.9hPa Calm     69% 0.00in /  0mm 0 W/m2
21:34 75.9 °F /  24.4 °C 66.2 °F /  19 °C 30.13in /  1020.2hPa Calm     70% 0.00in /  0mm 0 W/m2
21:39 75.6 °F /  24.2 °C 66 °F /  18.9 °C 30.13in /  1020.2hPa Calm   3mph /  4.8km/h 70% 0.00in /  0mm 0 W/m2
21:44 75.4 °F /  24.1 °C 65.8 °F /  18.8 °C 30.13in /  1020.2hPa Calm     70% 0.00in /  0mm 0 W/m2
21:49 75.3 °F /  24.1 °C 65.8 °F /  18.8 °C 30.13in /  1020.2hPa SW 0.2mph /  0.3km/h 2mph /  3.2km/h 70.2% 0.00in /  0mm 0 W/m2
21:54 75.2 °F /  24 °C 65.7 °F /  18.7 °C 30.13in /  1020.2hPa Calm   2mph /  3.2km/h 70% 0.00in /  0mm 0 W/m2
21:59 75 °F /  23.9 °C 65.6 °F /  18.7 °C 30.13in /  1020.2hPa Calm     70.2% 0.00in /  0mm 0 W/m2
22:04 75 °F /  23.9 °C 65.7 °F /  18.7 °C 30.13in /  1020.2hPa SW 1mph /  1.6km/h 4mph /  6.4km/h 70.6% 0.00in /  0mm 0 W/m2
22:09 74.8 °F /  23.8 °C 65.4 °F /  18.6 °C 30.13in /  1020.2hPa SW 0.8mph /  1.3km/h 2mph /  3.2km/h 70.2% 0.00in /  0mm 0 W/m2
22:14 74.8 °F /  23.8 °C 65.4 °F /  18.6 °C 30.13in /  1020.2hPa SW 0.8mph /  1.3km/h 3mph /  4.8km/h 70.2% 0.00in /  0mm 0 W/m2
22:19 74.8 °F /  23.8 °C 65.4 °F /  18.6 °C 30.13in /  1020.2hPa Calm   2mph /  3.2km/h 70.4% 0.00in /  0mm 0 W/m2
22:24 74.4 °F /  23.6 °C 65.2 °F /  18.4 °C 30.13in /  1020.2hPa Calm     71% 0.00in /  0mm 0 W/m2
22:29 73.9 °F /  23.3 °C 64.8 °F /  18.2 °C 30.14in /  1020.5hPa SW 1.7mph /  2.7km/h 4mph /  6.4km/h 71.2% 0.00in /  0mm 0 W/m2
22:34 73.5 °F /  23.1 °C 64.8 °F /  18.2 °C 30.14in /  1020.5hPa SW 2mph /  3.2km/h 5mph /  8km/h 72% 0.00in /  0mm 0 W/m2
22:39 73.2 °F /  22.9 °C 64.6 °F /  18.1 °C 30.14in /  1020.5hPa SW 1.5mph /  2.4km/h 4mph /  6.4km/h 72.2% 0.00in /  0mm 0 W/m2
22:44 73 °F /  22.8 °C 64.8 °F /  18.2 °C 30.14in /  1020.5hPa SW 0.4mph /  0.6km/h 3mph /  4.8km/h 73% 0.00in /  0mm 0 W/m2
22:49 72.9 °F /  22.7 °C 64.6 °F /  18.1 °C 30.14in /  1020.5hPa Calm     73% 0.00in /  0mm 0 W/m2
22:54 72.7 °F /  22.6 °C 64.6 °F /  18.1 °C 30.14in /  1020.5hPa Calm   2mph /  3.2km/h 73.4% 0.00in /  0mm 0 W/m2
22:59 72.7 °F /  22.6 °C 64.8 °F /  18.2 °C 30.14in /  1020.5hPa Calm     74% 0.00in /  0mm 0 W/m2
23:04 72.5 °F /  22.5 °C 64.6 °F /  18.1 °C 30.14in /  1020.5hPa Calm     74% 0.00in /  0mm 0 W/m2
23:09 72.2 °F /  22.3 °C 64.3 °F /  17.9 °C 30.14in /  1020.5hPa Calm     74% 0.00in /  0mm 0 W/m2
23:14 72.1 °F /  22.3 °C 64.2 °F /  17.9 °C 30.14in /  1020.5hPa Calm     74% 0.00in /  0mm 0 W/m2
23:19 72.1 °F /  22.3 °C 64.5 °F /  18.1 °C 30.14in /  1020.5hPa Calm     75% 0.00in /  0mm 0 W/m2
23:24 72 °F /  22.2 °C 64.4 °F /  18 °C 30.14in /  1020.5hPa Calm     75% 0.00in /  0mm 0 W/m2
23:29 71.7 °F /  22.1 °C 64.2 °F /  17.9 °C 30.14in /  1020.5hPa Calm     75.2% 0.00in /  0mm 0 W/m2
23:34 71.3 °F /  21.8 °C 64 °F /  17.8 °C 30.14in /  1020.5hPa Calm     75.2% 0.00in /  0mm 0 W/m2
23:39 71.1 °F /  21.7 °C 63.8 °F /  17.7 °C 30.14in /  1020.5hPa Calm     75% 0.00in /  0mm 0 W/m2
23:44 71.1 °F /  21.7 °C 64 °F /  17.8 °C 30.14in /  1020.5hPa Calm     76% 0.00in /  0mm 0 W/m2
23:49 71.1 °F /  21.7 °C 64 °F /  17.8 °C 30.14in /  1020.5hPa Calm     76% 0.00in /  0mm 0 W/m2
23:54 71.1 °F /  21.7 °C 64 °F /  17.8 °C 30.14in /  1020.5hPa Calm     76% 0.00in /  0mm 0 W/m2
23:59 70.9 °F /  21.6 °C 63.9 °F /  17.7 °C 30.14in /  1020.5hPa Calm     76% 0.00in /  0mm 0 W/m2
Bath Spa Weather
Compliments of Weather Underground - 2 mb